This is the latest recevied weather packets stored in our database for station/object G4KVI. If no packets are shown the sender has not sent any weather packets the latest 10 day(s).
| Time | Temp. | Humidity | Pressure | Rain* | Wind** | Luminosity | Snow |
|---|---|---|---|---|---|---|---|
| 1788434404 | 22.78° C | 75% | 1020.3 hPa | 0 mm | - | 397 W/m² | - |
| 1788434104 | 22.22° C | 77% | 1020.2 hPa | 0 mm | - | 303 W/m² | - |
| 1788433804 | 22.22° C | 78% | 1020.2 hPa | 0 mm | - | 457 W/m² | - |
| 1788433504 | 21.67° C | 80% | 1020.2 hPa | 0 mm | - | 471 W/m² | - |
| 1788433204 | 21.67° C | 79% | 1020.5 hPa | 0 mm | - | 306 W/m² | - |
| 1788432904 | 21.11° C | 81% | 1020.3 hPa | 0 mm | - | 218 W/m² | - |
| 1788432604 | 21.11° C | 79% | 1020.1 hPa | 0 mm | - | 233 W/m² | - |
| 1788432304 | 21.67° C | 79% | 1020.1 hPa | 0 mm | - | 170 W/m² | - |
| 1788432004 | 21.67° C | 77% | 1020.2 hPa | 0 mm | - | 361 W/m² | - |
| 1788431704 | 21.67° C | 78% | 1020.3 hPa | 0 mm | - | 554 W/m² | - |
| 1788431404 | 21.11° C | 79% | 1020.2 hPa | 0 mm | - | 521 W/m² | - |
| 1788431104 | 20° C | 82% | 1020.3 hPa | 0 mm | - | 522 W/m² | - |
| 1788430804 | 20° C | 82% | 1020.3 hPa | 0 mm | - | 227 W/m² | - |
| 1788430504 | 20° C | 82% | 1020.4 hPa | 0 mm | - | 182 W/m² | - |
| 1788430204 | 20° C | 82% | 1020.3 hPa | 0 mm | - | 159 W/m² | - |
| 1788429904 | 20° C | 81% | 1020.6 hPa | 0 mm | - | 194 W/m² | - |
| 1788429604 | 19.44° C | 81% | 1020.4 hPa | 0 mm | - | 193 W/m² | - |
| 1788429304 | 19.44° C | 81% | 1020.5 hPa | 0 mm | - | 232 W/m² | - |
| 1788429004 | 19.44° C | 81% | 1020.7 hPa | 0 mm | - | 180 W/m² | - |
| 1788428703 | 19.44° C | 82% | 1020.5 hPa | 0 mm | - | 271 W/m² | - |
| 1788428403 | 19.44° C | 84% | 1020.7 hPa | 0 mm | - | 226 W/m² | - |
| 1788428104 | 19.44° C | 84% | 1020.7 hPa | 0 mm | - | 165 W/m² | - |
| 1788427804 | 19.44° C | 83% | 1020.7 hPa | 0 mm | - | 205 W/m² | - |
| 1788427504 | 19.44° C | 83% | 1020.3 hPa | 0 mm | - | 150 W/m² | - |
| 1788427204 | 19.44° C | 84% | 1020.3 hPa | 0 mm | - | 316 W/m² | - |
* Rain latest hour (hover to see other rain measurements)
** Current wind speed in m/s (hover to see current wind gust speed)